• Join FlightAware (Why Join?)
  • Login
  • US Flag 
01:04AM EDT


 

Airport Tracker/Info


-or-


 

Live Flight TrackerFlight Track Log ✈ SWA407 ✈ 10-May-2013 ✈ KSAN - KLAS

Flight Track Log - Related Links

Times and Time Zones

All times are in EDT time to prevent confusion due to time zone crossing. See the SWA407 flight status page for this flight to view local times or setup timezone preferences in your user account.

Time Position Orientation Groundspeed Altitude Reporting Facility
EDT Latitude Longitude Course Direction KTS MPH feet Rate Location/Type
01:06AM 32.7544 -117.2356 286° West 180 207 2,300  Level Los Angeles Center
01:07AM 32.7811 -117.2897 300° West 187 215 5,400 3,660 Climbing Los Angeles Center
01:08AM 32.8247 -117.3789 300° West 267 307 9,800 4,140 Climbing Los Angeles Center
01:09AM 32.8656 -117.4664 299° West 293 337 14,000 3,720 Climbing Los Angeles Center
01:10AM 32.9292 -117.5378 317° Northwest 314 361 17,500 3,420 Climbing Los Angeles Center
01:11AM 33.0044 -117.6003 325° Northwest 325 374 21,000 3,300 Climbing Los Angeles Center
01:12AM 33.0778 -117.6711 321° Northwest 342 394 24,300 3,120 Climbing Los Angeles Center
01:13AM 33.1675 -117.6964 347° North 347 399 27,500 2,280 Climbing Los Angeles Center
01:14AM 33.2592 -117.7067 355° North 333 383 29,000 660 Climbing Los Angeles Center
01:16AM 33.3569 -117.7161 355° North 352 405 29,000  Level Los Angeles Center
01:17AM 33.4992 -117.7297 355° North 367 422 29,000  Level Los Angeles Center
01:18AM 33.5997 -117.7392 356° North 365 420 29,000  Level Los Angeles Center
01:19AM 33.7011 -117.7494 355° North 368 423 29,000  Level Los Angeles Center
01:20AM 33.8019 -117.7581 356° North 367 422 29,000  Level Los Angeles Center
01:21AM 33.9036 -117.7692 355° North 368 423 29,000  Level Los Angeles Center
01:22AM 34.0050 -117.7786 356° North 368 423 29,000  Level Los Angeles Center
01:23AM 34.1006 -117.7556 11° North 377 434 29,000  Level Los Angeles Center
01:24AM 34.1839 -117.6450 48° Northeast 372 428 29,000  Level Los Angeles Center
01:25AM 34.2533 -117.5514 48° Northeast 375 432 29,000  Level Los Angeles Center
01:26AM 34.3217 -117.4575 49° Northeast 373 429 29,000  Level Los Angeles Center
01:27AM 34.3767 -117.3842 48° Northeast 371 427 29,000  Level Los Angeles Center
01:28AM 34.4586 -117.2711 49° Northeast 374 430 29,000  Level Los Angeles Center
01:29AM 34.5275 -117.1750 49° Northeast 378 435 29,000  Level Los Angeles Center
01:30AM 34.6097 -117.0617 49° Northeast 377 434 29,000  Level Los Angeles Center
01:31AM 34.6797 -116.9653 49° Northeast 379 436 29,000  Level Los Angeles Center
01:32AM 34.7492 -116.8711 48° Northeast 378 435 29,000  Level Los Angeles Center
01:33AM 34.8353 -116.7517 49° Northeast 383 441 29,000  Level Los Angeles Center
01:34AM 34.9050 -116.6556 48° Northeast 387 445 29,000  Level Los Angeles Center
01:35AM 34.9733 -116.5597 49° Northeast 381 438 29,000  Level Los Angeles Center
01:36AM 35.0464 -116.4681 46° Northeast 379 436 29,000 -60 Level Los Angeles Center
01:37AM 35.1197 -116.3786 45° Northeast 376 433 28,900 -1,080 Descending Los Angeles Center
01:38AM 35.1903 -116.2889 46° Northeast 371 427 26,900 -1,980 Descending Los Angeles Center
01:39AM 35.2617 -116.2033 44° Northeast 364 419 24,900 -1,860 Descending Los Angeles Center
01:40AM 35.3244 -116.1194 47° Northeast 341 392 23,200 -1,680 Descending Los Angeles Center
01:41AM 35.3889 -116.0389 46° Northeast 334 384 21,500 -1,740 Descending Los Angeles Center
01:42AM 35.4517 -115.9608 45° Northeast 325 374 19,700 -1,920 Descending Los Angeles Center
01:43AM 35.5272 -115.8658 46° Northeast 318 366 17,600 -1,980 Descending Los Angeles Center
01:44AM 35.5856 -115.7908 46° Northeast 308 354 15,700 -1,920 Descending Los Angeles Center
01:45AM 35.6083 -115.7628 45° Northeast 306 352 14,900 -1,680 Descending Los Angeles Center
01:45AM 35.6447 -115.7150 47° Northeast 307 353 14,000 -1,920 Descending Los Angeles Center
01:46AM 35.6731 -115.6811 44° Northeast 312 359 13,000 -1,020 Descending Los Angeles Center
01:46AM 35.7097 -115.6389 43° Northeast 318 366 13,000  Level Los Angeles Center
01:47AM 35.7483 -115.6094 32° Northeast 318 366 13,000  Level Los Angeles Center
01:48AM 35.7839 -115.5803 34° Northeast 316 364 13,000 -1,020 Level Los Angeles Center
01:48AM 35.8250 -115.5450 35° Northeast 320 368 12,000 -1,020 Descending Los Angeles Center
01:49AM 35.8578 -115.5186 33° Northeast 320 368 12,000  Level Los Angeles Center
01:49AM 35.8947 -115.4878 34° Northeast 321 369 12,000  Level Los Angeles Center
01:50AM 35.9297 -115.4592 33° Northeast 317 365 12,000 -420 Level Los Angeles Center
01:50AM 35.9625 -115.4314 34° Northeast 286 329 11,600 -840 Descending Los Angeles Center
01:51AM 35.9961 -115.4039 34° Northeast 307 353 11,200 -600 Descending Los Angeles Center
01:51AM 36.0231 -115.3717 44° Northeast 281 323 11,000 -600 Descending Los Angeles Center
01:52AM 36.0278 -115.3258 83° East 291 335 10,600 -1,020 Descending Los Angeles Center
01:52AM 36.0233 -115.2733 96° East 278 320 10,000 -1,140 Descending Los Angeles Center
01:53AM 36.0206 -115.2333 95° East 278 320 9,500 -1,320 Descending Los Angeles Center
01:53AM 36.0167 -115.1931 97° East 264 304 8,800 -1,140 Descending Los Angeles Center
01:54AM 36.0150 -115.1444 92° East 266 306 8,400 -540 Descending Los Angeles Center
01:55AM 36.0086 -115.0486 95° East 243 280 7,900 -840 Descending Los Angeles Center
01:56AM 36.0053 -114.9869 94° East 198 228 6,800 -1,140 Descending Los Angeles Center
01:57AM 36.0153 -114.9325 77° East 189 217 5,600 -900 Descending Los Angeles Center
01:58AM 36.0647 -114.9458 348° North 185 213 5,000 -660 Descending Los Angeles Center
01:59AM 36.0742 -114.9953 283° West 167 192 4,300 -840 Descending Los Angeles Center
02:00AM 36.0744 -115.0478 270° West 157 181 3,400 -900 Descending Los Angeles Center
02:01AM 36.0742 -115.0981 270° West 152 175 2,500 -720 Descending Los Angeles Center
02:02AM 36.0739 -115.1461 270° West 146 168 2,000 -540 Descending Los Angeles Center